Time;durP1;ratioP1;P1;durP2;ratioP2;P2;SDS_P1;SDS_P2;PMS_P1;PMS_P2;Temp;Humidity;BMP_temperature;BMP_pressure;BME280_temperature;BME280_humidity;BME280_pressure;Samples;Min_cycle;Max_cycle;Signal;HPM_P1;HPM_P2
2022/01/03 00:01:14;;;;;;;28.13;17.80;;;;;;;5.55;88.38;100789.22;5012857;28;20543;-71
2022/01/03 00:03:40;;;;;;;49.83;20.25;;;;;;;5.29;88.41;100752.97;5024337;28;20080;-73
2022/01/03 00:09:50;;;;;;;30.45;17.27;;;;;;;5.61;87.89;100765.06;5026131;28;20080;-72
2022/01/03 00:12:19;;;;;;;28.13;18.83;;;;;;;5.59;88.01;100774.56;5048197;28;20049;-73
2022/01/03 00:14:44;;;;;;;49.05;18.83;;;;;;;5.48;88.14;100753.47;5026305;28;20014;-74
2022/01/03 00:18:08;;;;;;;32.40;16.80;;;;;;;5.39;88.89;100772.31;5049117;27;20591;-70
2022/01/03 00:20:59;;;;;;;38.13;18.00;;;;;;;5.39;89.28;100782.72;5029892;28;20117;-71
2022/01/03 00:23:32;;;;;;;44.72;18.98;;;;;;;5.11;89.64;100762.88;5011869;28;20366;-73
2022/01/03 00:26:00;;;;;;;29.00;19.88;;;;;;;5.46;90.31;100781.19;5033959;28;20393;-72
2022/01/03 00:28:39;;;;;;;26.60;18.35;;;;;;;5.56;89.43;100748.47;5035040;28;20042;-73
2022/01/03 00:31:05;;;;;;;52.10;19.42;;;;;;;5.62;89.33;100774.63;5010119;28;20034;-71
2022/01/03 00:33:32;;;;;;;69.05;19.98;;;;;;;5.39;89.63;100781.84;5010439;28;20052;-72
2022/01/03 00:36:49;;;;;;;51.60;20.63;;;;;;;5.57;89.50;100778.84;5025755;28;20355;-72
2022/01/03 00:39:15;;;;;;;39.05;19.08;;;;;;;5.22;89.88;100757.94;5022055;28;20042;-73
2022/01/03 00:41:43;;;;;;;29.20;17.77;;;;;;;5.25;90.19;100745.06;5024993;28;20032;-73
2022/01/03 00:44:10;;;;;;;47.75;20.27;;;;;;;5.55;89.96;100768.41;5025137;28;20042;-73
2022/01/03 00:46:35;;;;;;;79.63;19.02;;;;;;;5.43;89.84;100745.53;5023103;28;20048;-74
2022/01/03 00:49:03;;;;;;;38.88;19.67;;;;;;;5.55;89.88;100744.06;5028284;28;20042;-73
2022/01/03 00:51:30;;;;;;;61.50;19.60;;;;;;;5.47;89.67;100744.75;5027703;28;20037;-73
2022/01/03 00:54:46;;;;;;;24.48;16.55;;;;;;;5.29;89.82;100745.19;5028196;28;20029;-73
2022/01/03 00:57:54;;;;;;;175.85;22.80;;;;;;;5.13;90.98;100721.28;5022664;28;20129;-72
2022/01/03 01:07:18;;;;;;;54.20;16.98;;;;;;;5.28;90.16;100706.97;5022474;28;20099;-72
2022/01/03 01:09:49;;;;;;;52.47;17.55;;;;;;;5.06;90.68;100713.34;5043725;28;20091;-72
2022/01/03 01:12:15;;;;;;;39.25;18.05;;;;;;;5.21;90.98;100691.16;5047485;28;20405;-72
2022/01/03 01:18:04;;;;;;;24.75;15.18;;;;;;;5.17;91.38;100689.31;5028065;28;20369;-73
2022/01/03 01:20:32;;;;;;;44.35;16.40;;;;;;;5.06;91.22;100689.94;5031238;28;20424;-74
2022/01/03 01:22:58;;;;;;;19.83;14.85;;;;;;;5.11;90.83;100656.25;5020369;28;20037;-73
2022/01/03 01:27:47;;;;;;;61.28;19.90;;;;;;;5.43;90.23;100667.47;5027141;28;20038;-73
2022/01/03 01:28:24;;;;;;;20.83;15.40;;;;;;;5.44;89.51;100676.16;5007953;28;20142;-72
2022/01/03 01:31:28;;;;;;;23.85;15.95;;;;;;;5.43;89.54;100653.56;5011009;28;20065;-73
2022/01/03 01:33:56;;;;;;;27.85;15.63;;;;;;;5.48;89.01;100625.94;5019215;28;20048;-73
2022/01/03 01:36:28;;;;;;;28.20;17.30;;;;;;;5.83;88.13;100642.41;5008006;28;20068;-74
2022/01/03 01:39:04;;;;;;;22.80;15.40;;;;;;;5.68;88.13;100614.25;5015925;28;20069;-74
2022/01/03 01:41:30;;;;;;;32.75;15.82;;;;;;;5.37;88.85;100607.47;5010137;28;20109;-73
2022/01/03 01:43:59;;;;;;;26.92;15.55;;;;;;;5.39;88.87;100597.09;5001896;28;20192;-73
2022/01/03 01:46:34;;;;;;;27.60;17.27;;;;;;;5.49;88.49;100606.88;5013375;28;20482;-73
2022/01/03 01:49:03;;;;;;;19.50;15.52;;;;;;;5.55;88.82;100624.34;5000927;28;20049;-74
2022/01/03 01:51:34;;;;;;;25.48;17.33;;;;;;;5.46;89.19;100628.50;4992975;28;20038;-73
2022/01/03 01:54:04;;;;;;;22.90;16.02;;;;;;;5.20;89.74;100599.25;5011930;28;20544;-74
2022/01/03 01:56:58;;;;;;;22.52;15.55;;;;;;;5.58;89.40;100606.22;5013191;28;20033;-74
2022/01/03 02:06:00;;;;;;;36.00;16.77;;;;;;;5.66;88.49;100597.72;5011750;28;20626;-72
2022/01/03 02:08:32;;;;;;;23.52;15.35;;;;;;;5.69;88.11;100583.94;5015289;28;20025;-74
2022/01/03 02:11:49;;;;;;;24.80;15.55;;;;;;;5.65;88.41;100611.59;5012648;28;20045;-73
2022/01/03 02:14:14;;;;;;;24.73;14.90;;;;;;;5.23;89.41;100580.25;4983893;28;20078;-78
2022/01/03 02:16:41;;;;;;;20.75;14.82;;;;;;;5.24;89.58;100579.38;5012685;28;20117;-72
2022/01/03 02:19:25;;;;;;;29.45;14.15;;;;;;;5.35;89.58;100583.13;5011328;28;20041;-73
2022/01/03 02:22:37;;;;;;;35.05;17.40;;;;;;;5.41;89.38;100566.78;5010879;28;20053;-72
2022/01/03 02:28:57;;;;;;;27.05;14.55;;;;;;;5.32;88.85;100561.38;5013125;28;20092;-71
2022/01/03 02:31:23;;;;;;;23.55;16.15;;;;;;;5.07;89.20;100540.84;4998618;28;20069;-71
2022/01/03 02:33:49;;;;;;;22.98;14.45;;;;;;;4.83;89.52;100520.31;5010992;28;20056;-73
2022/01/03 02:36:16;;;;;;;25.60;14.38;;;;;;;4.95;90.06;100524.06;5010362;28;20077;-71
2022/01/03 02:39:23;;;;;;;18.65;12.68;;;;;;;5.11;89.65;100515.78;5010125;28;20026;-71
2022/01/03 02:45:16;;;;;;;20.63;14.30;;;;;;;5.04;90.43;100488.75;5011858;28;20033;-71
2022/01/03 02:47:49;;;;;;;24.35;13.60;;;;;;;5.37;89.65;100512.91;5010280;28;20454;-73
2022/01/03 02:50:16;;;;;;;24.00;13.52;;;;;;;4.98;89.44;100479.94;5010763;28;20046;-74
2022/01/03 02:56:44;;;;;;;19.77;14.05;;;;;;;5.37;88.71;100489.50;5012559;28;20177;-73
2022/01/03 02:59:14;;;;;;;22.98;14.23;;;;;;;5.30;88.95;100480.69;5010535;28;20038;-74
2022/01/03 03:01:44;;;;;;;23.85;14.80;;;;;;;5.44;88.59;100460.16;5013614;28;20454;-73
2022/01/03 03:08:08;;;;;;;19.35;13.50;;;;;;;5.52;87.42;100449.91;5009878;28;20121;-73
2022/01/03 03:10:34;;;;;;;29.85;14.15;;;;;;;5.20;88.61;100463.13;5006605;28;20042;-74
2022/01/03 03:12:59;;;;;;;24.55;13.38;;;;;;;5.39;88.28;100457.47;5016050;28;20049;-74
2022/01/03 03:15:25;;;;;;;17.20;12.15;;;;;;;5.45;88.68;100456.72;5006945;28;20038;-73
2022/01/03 03:17:51;;;;;;;49.45;16.63;;;;;;;5.58;88.23;100457.88;5006686;28;20558;-74
2022/01/03 03:27:00;;;;;;;24.38;15.77;;;;;;;5.24;88.54;100454.50;5029004;28;20104;-73
2022/01/03 03:29:25;;;;;;;18.35;12.75;;;;;;;5.32;88.84;100459.91;5021731;28;20025;-74
2022/01/03 03:31:51;;;;;;;24.58;13.10;;;;;;;5.19;89.19;100461.34;5011091;28;20041;-73
2022/01/03 03:34:16;;;;;;;20.48;11.68;;;;;;;4.98;90.01;100456.53;5008948;28;20501;-73
2022/01/03 03:36:42;;;;;;;36.63;13.05;;;;;;;4.93;90.20;100450.34;5009791;28;20500;-74
2022/01/03 03:39:07;;;;;;;21.10;11.07;;;;;;;5.10;89.86;100462.00;5010375;28;20064;-72
2022/01/03 03:41:32;;;;;;;21.58;12.50;;;;;;;5.21;89.05;100441.44;5010903;28;20040;-73
2022/01/03 03:43:58;;;;;;;15.88;12.10;;;;;;;5.29;89.17;100466.81;4999752;28;20046;-72
2022/01/03 03:46:24;;;;;;;30.95;11.57;;;;;;;5.09;89.28;100447.25;5002885;28;20048;-73
2022/01/03 03:48:49;;;;;;;21.77;12.52;;;;;;;5.40;89.26;100461.81;5010899;28;20030;-72
2022/01/03 04:08:03;;;;;;;15.80;11.05;;;;;;;4.80;90.03;100457.88;4994079;28;20105;-72
2022/01/03 04:10:28;;;;;;;20.65;11.50;;;;;;;4.65;90.49;100429.75;4998282;28;20037;-74
2022/01/03 04:12:54;;;;;;;20.13;10.80;;;;;;;4.99;90.46;100440.09;5004449;28;20378;-75
2022/01/03 04:15:19;;;;;;;18.77;11.52;;;;;;;4.79;90.21;100457.81;5007680;28;20397;-73
2022/01/03 04:17:58;;;;;;;23.80;12.88;;;;;;;5.09;90.40;100460.25;5014825;28;20096;-74
2022/01/03 04:20:25;;;;;;;17.33;11.00;;;;;;;5.19;89.71;100425.81;5005005;28;20038;-74
2022/01/03 04:22:50;;;;;;;18.55;12.95;;;;;;;5.28;89.13;100430.34;5009581;28;20029;-73
2022/01/03 04:25:16;;;;;;;19.27;12.60;;;;;;;5.25;88.89;100409.47;5004565;28;20038;-73
2022/01/03 04:31:15;;;;;;;17.65;11.38;;;;;;;5.33;88.63;100407.03;5013402;28;20041;-73
2022/01/03 04:34:16;;;;;;;20.38;13.23;;;;;;;5.15;89.13;100428.31;5018483;28;20037;-73
2022/01/03 04:43:25;;;;;;;18.98;13.88;;;;;;;5.33;89.57;100454.72;5010461;28;20045;-72
2022/01/03 04:45:51;;;;;;;19.05;12.77;;;;;;;5.06;89.78;100426.41;5008583;28;20050;-72
2022/01/03 04:48:17;;;;;;;19.33;11.63;;;;;;;5.27;89.53;100449.41;5008130;28;20541;-72
2022/01/03 04:50:43;;;;;;;19.25;12.40;;;;;;;5.23;89.83;100443.25;5011363;28;20075;-72
2022/01/03 04:53:09;;;;;;;17.35;11.68;;;;;;;5.32;89.31;100428.69;4999174;28;20046;-73
2022/01/03 04:55:35;;;;;;;23.13;13.68;;;;;;;5.27;89.57;100459.81;5009314;28;20400;-73
2022/01/03 04:58:00;;;;;;;18.27;12.25;;;;;;;5.29;88.86;100453.78;5056931;28;20156;-72
2022/01/03 05:04:30;;;;;;;17.30;13.23;;;;;;;5.10;89.84;100435.13;5012960;28;20125;-72
2022/01/03 05:10:17;;;;;;;20.77;13.70;;;;;;;5.46;88.94;100442.88;5012459;28;20048;-73
2022/01/03 05:12:43;;;;;;;22.20;13.43;;;;;;;5.46;88.55;100437.66;5014184;28;20042;-73
2022/01/03 05:15:08;;;;;;;22.27;13.75;;;;;;;5.34;88.70;100433.09;5012867;28;20049;-73
2022/01/03 05:17:57;;;;;;;19.05;14.27;;;;;;;5.35;88.44;100428.75;5025329;28;20091;-72
2022/01/03 05:20:23;;;;;;;26.70;14.45;;;;;;;5.41;88.49;100413.28;4995870;28;20442;-75
2022/01/03 05:22:48;;;;;;;18.58;13.95;;;;;;;5.61;87.90;100411.06;4992972;28;20056;-72
2022/01/03 05:25:14;;;;;;;17.65;14.48;;;;;;;5.61;87.49;100393.72;4987181;28;20038;-72
2022/01/03 05:27:55;;;;;;;18.13;12.10;;;;;;;5.63;87.52;100406.78;4989984;28;20125;-74
2022/01/03 05:30:20;;;;;;;20.90;12.77;;;;;;;5.48;87.34;100382.19;4986957;28;20567;-74
2022/01/03 05:32:46;;;;;;;19.50;13.57;;;;;;;5.68;87.54;100387.78;4983584;28;20113;-73
2022/01/03 05:35:13;;;;;;;19.60;13.38;;;;;;;5.54;87.49;100381.44;4989891;28;20026;-71
2022/01/03 05:37:38;;;;;;;23.15;13.57;;;;;;;5.44;87.36;100389.91;5019469;28;20113;-72
2022/01/03 05:40:05;;;;;;;25.42;13.40;;;;;;;5.53;87.68;100392.69;4994476;28;20043;-71
2022/01/03 05:42:31;;;;;;;21.42;12.77;;;;;;;5.43;87.53;100364.72;4987470;28;20039;-72
2022/01/03 05:44:57;;;;;;;23.48;14.63;;;;;;;5.36;87.38;100353.34;4991581;28;20030;-72
2022/01/03 05:47:23;;;;;;;19.00;13.45;;;;;;;5.31;88.06;100364.47;4992376;28;20578;-72
2022/01/03 05:49:48;;;;;;;19.00;12.98;;;;;;;5.21;88.25;100360.81;4991521;28;20038;-73
2022/01/03 05:52:14;;;;;;;25.23;11.88;;;;;;;5.50;87.90;100377.00;4994031;28;20034;-72
2022/01/03 05:54:39;;;;;;;20.13;13.00;;;;;;;5.29;87.48;100341.03;4988481;28;20046;-74
2022/01/03 05:57:05;;;;;;;22.42;13.95;;;;;;;5.42;87.59;100366.44;4989002;28;20038;-73
2022/01/03 05:59:30;;;;;;;17.80;12.98;;;;;;;5.36;87.70;100370.66;4989428;28;20027;-72
2022/01/03 06:02:38;;;;;;;20.85;14.10;;;;;;;5.18;87.67;100351.22;5025497;28;20130;-72
2022/01/03 06:08:24;;;;;;;23.88;14.43;;;;;;;5.57;87.08;100349.38;5007735;28;20478;-72
2022/01/03 06:10:51;;;;;;;17.83;12.55;;;;;;;5.31;86.54;100354.06;5009792;28;20046;-73
2022/01/03 06:13:17;;;;;;;18.17;11.90;;;;;;;5.42;87.42;100379.47;5012572;28;20042;-73
2022/01/03 06:15:43;;;;;;;24.27;14.73;;;;;;;5.64;86.97;100377.28;5010903;28;20387;-73
2022/01/03 06:18:21;;;;;;;18.83;12.82;;;;;;;5.55;86.66;100387.50;5012194;28;20025;-72
2022/01/03 06:24:13;;;;;;;31.25;15.77;;;;;;;5.66;86.59;100380.78;5015934;28;20544;-72
2022/01/03 06:26:43;;;;;;;15.63;12.20;;;;;;;5.82;86.43;100369.81;5009953;28;20025;-72
2022/01/03 06:29:10;;;;;;;21.05;13.98;;;;;;;5.86;86.07;100384.66;5026209;28;20037;-72
2022/01/03 06:32:30;;;;;;;19.10;13.55;;;;;;;5.79;86.04;100355.88;5021009;28;20046;-72
2022/01/03 06:35:45;;;;;;;21.40;15.68;;;;;;;5.74;86.10;100362.75;5013024;28;20048;-73
2022/01/03 06:38:11;;;;;;;24.42;13.43;;;;;;;5.64;86.56;100362.56;5015810;28;20061;-78
2022/01/03 06:40:36;;;;;;;19.67;13.15;;;;;;;5.66;86.34;100386.88;5010363;28;20041;-72
2022/01/03 06:43:03;;;;;;;21.73;14.55;;;;;;;5.57;86.70;100385.81;5015939;28;20033;-72
2022/01/03 06:48:39;;;;;;;19.13;12.02;;;;;;;5.58;86.56;100388.47;5013092;28;20462;-72
2022/01/03 06:51:04;;;;;;;22.50;13.25;;;;;;;5.56;86.82;100368.47;4995067;28;20046;-72
2022/01/03 06:53:30;;;;;;;24.63;14.50;;;;;;;5.53;87.15;100358.00;5010874;28;20018;-72
2022/01/03 06:55:55;;;;;;;22.55;12.85;;;;;;;5.49;87.28;100359.66;5012556;28;20049;-72
2022/01/03 06:58:46;;;;;;;27.98;15.48;;;;;;;5.63;86.71;100352.09;5007952;28;20500;-73
2022/01/03 07:01:14;;;;;;;27.88;14.73;;;;;;;5.58;86.88;100338.13;5012703;28;20515;-72
2022/01/03 07:03:39;;;;;;;24.90;14.95;;;;;;;5.44;87.36;100341.34;4994478;28;20046;-73
2022/01/03 07:06:05;;;;;;;21.08;13.23;;;;;;;5.42;87.22;100324.81;5006760;28;20041;-73
2022/01/03 07:08:47;;;;;;;23.95;15.68;;;;;;;5.36;88.01;100358.53;5007683;28;20214;-73
2022/01/03 07:11:44;;;;;;;24.90;13.75;;;;;;;5.23;88.19;100334.00;4999970;28;20057;-73
2022/01/03 07:27:54;;;;;;;18.10;11.90;;;;;;;5.71;86.96;100327.09;5025277;28;20056;-73
2022/01/03 07:33:42;;;;;;;14.15;11.93;;;;;;;5.72;86.88;100340.13;4994706;28;20041;-73
2022/01/03 07:36:08;;;;;;;17.58;13.65;;;;;;;5.62;86.26;100301.78;5009293;28;20119;-75
2022/01/03 07:38:33;;;;;;;15.23;10.63;;;;;;;5.69;85.52;100306.25;5006860;28;20037;-73
2022/01/03 07:40:59;;;;;;;17.13;12.77;;;;;;;5.82;85.36;100309.06;4994270;28;20466;-73
2022/01/03 07:43:24;;;;;;;17.05;12.98;;;;;;;5.62;86.12;100303.50;5007148;28;20041;-73
2022/01/03 07:45:50;;;;;;;16.38;12.63;;;;;;;5.78;85.82;100304.66;5009423;28;20045;-73
2022/01/03 07:48:15;;;;;;;17.67;13.60;;;;;;;5.83;85.60;100308.19;5006276;28;20079;-72
2022/01/03 07:50:41;;;;;;;17.67;12.18;;;;;;;6.05;85.50;100312.09;5011572;28;20017;-78
2022/01/03 07:59:50;;;;;;;14.10;11.82;;;;;;;6.02;84.78;100293.81;5008440;28;20088;-71
2022/01/03 08:02:15;;;;;;;17.27;13.20;;;;;;;5.66;85.21;100263.66;5010432;28;20495;-71
2022/01/03 08:04:41;;;;;;;15.05;12.90;;;;;;;5.79;85.24;100278.66;5012794;28;20048;-71
2022/01/03 08:10:27;;;;;;;16.73;12.95;;;;;;;6.05;84.53;100278.25;5007138;28;20041;-73
2022/01/03 08:12:53;;;;;;;23.90;12.05;;;;;;;6.00;84.27;100280.78;5010843;28;20458;-72
2022/01/03 08:15:18;;;;;;;19.52;13.38;;;;;;;6.35;84.49;100293.47;5011490;28;20104;-72
2022/01/03 08:17:46;;;;;;;23.45;14.18;;;;;;;5.94;84.70;100291.06;5010316;28;20068;-72
2022/01/03 08:20:12;;;;;;;18.25;13.93;;;;;;;6.05;84.42;100284.31;5007714;28;20116;-72
2022/01/03 08:22:38;;;;;;;15.85;11.93;;;;;;;5.83;84.81;100282.16;5007530;28;20034;-72
2022/01/03 08:25:04;;;;;;;19.95;13.80;;;;;;;6.21;84.25;100297.59;5012653;28;20063;-72
2022/01/03 08:27:29;;;;;;;18.23;14.40;;;;;;;6.40;83.59;100330.03;5021116;28;20034;-72
2022/01/03 08:32:16;;;;;;;19.45;14.98;;;;;;;6.29;83.23;100311.59;5119126;27;21260;-72
2022/01/03 08:34:41;;;;;;;24.63;16.25;;;;;;;5.88;83.96;100312.66;5100031;27;20031;-74
2022/01/03 08:47:34;;;;;;;19.15;14.07;;;;;;;6.13;84.27;100320.91;5116431;27;20046;-72
2022/01/03 08:50:51;;;;;;;19.50;15.43;;;;;;;6.30;83.81;100326.41;5108857;27;20043;-72
2022/01/03 08:53:59;;;;;;;22.15;15.65;;;;;;;6.43;83.15;100312.69;5119202;27;20043;-72
2022/01/03 09:03:39;;;;;;;17.35;14.60;;;;;;;6.44;83.57;100321.38;5145383;27;20046;-72
2022/01/03 09:06:57;;;;;;;19.10;14.10;;;;;;;6.59;83.33;100286.88;5128835;27;20124;-71
2022/01/03 09:10:03;;;;;;;20.15;15.73;;;;;;;6.57;82.69;100304.22;5120550;27;20092;-72
2022/01/03 09:12:29;;;;;;;18.90;14.63;;;;;;;6.38;83.11;100288.31;5107983;27;20082;-72
2022/01/03 09:14:54;;;;;;;18.65;14.63;;;;;;;6.49;83.09;100291.94;5132800;27;20051;-72
2022/01/03 09:17:20;;;;;;;20.38;15.10;;;;;;;6.57;82.96;100272.94;5133466;27;20039;-71
2022/01/03 09:23:13;;;;;;;21.90;16.48;;;;;;;6.42;83.07;100287.50;5114228;27;20047;-72
2022/01/03 09:30:50;;;;;;;22.75;16.35;;;;;;;6.53;82.73;100291.16;5106438;27;20077;-72
2022/01/03 09:33:23;;;;;;;19.30;16.10;;;;;;;6.62;83.03;100266.03;5111890;27;20050;-73
2022/01/03 09:39:33;;;;;;;21.52;17.17;;;;;;;6.41;82.28;100258.81;5129791;27;20168;-72
2022/01/03 09:42:05;;;;;;;28.30;19.52;;;;;;;6.43;82.40;100244.06;5107402;28;20476;-74
2022/01/03 09:44:32;;;;;;;24.40;16.35;;;;;;;6.72;82.79;100263.59;5109165;27;20106;-73
2022/01/03 09:47:02;;;;;;;20.33;17.90;;;;;;;6.84;81.95;100225.50;5097974;28;20100;-79
2022/01/03 09:49:54;;;;;;;25.77;18.38;;;;;;;6.95;80.93;100214.34;5095803;28;20036;-72
2022/01/03 09:52:23;;;;;;;22.92;17.85;;;;;;;6.99;80.46;100215.22;5100820;28;20071;-72
2022/01/03 09:54:50;;;;;;;22.80;17.45;;;;;;;6.93;81.43;100234.31;5096951;28;20044;-72
2022/01/03 10:00:37;;;;;;;22.30;16.63;;;;;;;7.05;80.29;100204.88;5096495;28;20043;-73
2022/01/03 10:03:03;;;;;;;20.88;17.02;;;;;;;7.10;80.46;100225.78;5107342;27;20024;-73
2022/01/03 10:05:28;;;;;;;20.17;16.40;;;;;;;7.30;80.12;100226.84;5106692;28;20028;-73
2022/01/03 10:07:56;;;;;;;23.52;16.35;;;;;;;7.39;79.94;100202.59;5097056;28;20090;-73
2022/01/03 10:10:21;;;;;;;20.02;16.45;;;;;;;7.47;79.69;100185.28;5093486;28;20044;-74
2022/01/03 10:12:47;;;;;;;30.13;17.85;;;;;;;7.35;80.10;100214.75;5096339;28;20032;-73
2022/01/03 10:15:13;;;;;;;23.10;16.42;;;;;;;7.34;80.00;100199.06;5114835;28;20067;-73
2022/01/03 10:21:01;;;;;;;23.88;16.90;;;;;;;7.29;80.09;100175.53;5098360;27;20035;-71
2022/01/03 10:26:54;;;;;;;26.05;16.23;;;;;;;7.24;80.05;100166.78;5117236;28;20108;-72
2022/01/03 10:29:26;;;;;;;17.80;15.20;;;;;;;7.55;79.59;100203.63;5108569;27;20466;-72
2022/01/03 10:35:46;;;;;;;23.48;18.75;;;;;;;7.39;79.68;100168.66;5114269;28;20032;-74
2022/01/03 10:38:31;;;;;;;24.90;16.45;;;;;;;7.65;79.42;100175.84;5113438;28;20039;-75
2022/01/03 10:41:09;;;;;;;29.05;17.15;;;;;;;7.83;79.38;100187.28;5112793;28;20028;-74
2022/01/03 10:43:34;;;;;;;19.67;16.65;;;;;;;7.64;79.25;100161.91;5096388;28;20046;-71
2022/01/03 10:46:00;;;;;;;22.73;18.15;;;;;;;7.90;78.92;100148.16;5093268;28;20044;-72
2022/01/03 10:48:34;;;;;;;25.08;17.70;;;;;;;8.17;77.87;100173.56;5106908;27;20386;-71
2022/01/03 10:51:02;;;;;;;21.77;15.45;;;;;;;8.17;78.17;100155.28;5118276;27;20023;-72
2022/01/03 10:53:41;;;;;;;26.88;16.58;;;;;;;8.58;77.00;100139.81;5107527;28;20028;-72
2022/01/03 10:56:31;;;;;;;20.90;16.77;;;;;;;8.92;75.95;100194.00;5091629;28;20040;-71
2022/01/03 11:02:18;;;;;;;24.17;17.75;;;;;;;8.82;75.59;100154.72;5102882;28;20131;-72
2022/01/03 11:04:55;;;;;;;17.20;14.80;;;;;;;9.09;75.21;100156.53;5111835;28;20043;-72
2022/01/03 11:10:51;;;;;;;20.80;14.23;;;;;;;8.59;75.04;100159.00;5095818;28;20070;-71
2022/01/03 11:13:23;;;;;;;17.15;12.90;;;;;;;8.62;74.63;100110.22;5113605;27;20462;-71
2022/01/03 11:15:59;;;;;;;23.20;15.00;;;;;;;8.78;74.01;100132.06;5101088;28;20085;-71
2022/01/03 11:18:52;;;;;;;20.80;14.75;;;;;;;8.56;74.21;100106.69;5113072;28;20035;-71
2022/01/03 11:21:24;;;;;;;17.08;14.57;;;;;;;8.59;74.11;100099.75;5091384;28;20089;-71
2022/01/03 11:27:00;;;;;;;24.40;17.38;;;;;;;8.53;74.72;100120.63;5108584;27;20031;-72
2022/01/03 11:29:29;;;;;;;18.58;15.10;;;;;;;8.84;74.17;100136.41;5110022;27;20364;-71
2022/01/03 11:31:55;;;;;;;18.70;13.98;;;;;;;8.53;74.82;100104.09;5106451;28;20046;-71
2022/01/03 11:38:28;;;;;;;21.48;15.55;;;;;;;9.48;73.52;100105.09;5097933;27;20119;-71
2022/01/03 11:40:54;;;;;;;20.30;16.15;;;;;;;9.50;73.21;100102.44;5098089;28;20396;-71
2022/01/03 11:43:19;;;;;;;21.70;17.42;;;;;;;9.37;73.28;100116.44;5094889;28;20036;-71
2022/01/03 11:45:45;;;;;;;24.20;16.80;;;;;;;9.38;72.93;100095.47;5116126;28;20120;-71
2022/01/03 11:48:12;;;;;;;16.38;14.63;;;;;;;9.62;72.38;100094.59;5091623;27;20047;-70
2022/01/03 11:50:38;;;;;;;20.70;14.50;;;;;;;9.35;73.03;100097.25;5096409;28;20028;-71
2022/01/03 11:53:05;;;;;;;20.73;15.27;;;;;;;9.55;72.63;100089.34;5090011;28;20040;-71
2022/01/03 12:05:26;;;;;;;19.85;13.68;;;;;;;9.73;71.97;100081.47;5096346;28;20085;-71
2022/01/03 12:07:56;;;;;;;20.52;15.48;;;;;;;9.81;72.08;100070.97;5109023;28;20032;-71
2022/01/03 12:10:22;;;;;;;18.42;14.30;;;;;;;10.02;72.00;100077.88;5090344;28;20036;-72
2022/01/03 12:12:57;;;;;;;24.40;15.32;;;;;;;9.93;72.19;100082.31;5083846;28;20125;-71
2022/01/03 12:15:42;;;;;;;20.58;15.77;;;;;;;10.00;72.05;100090.16;5094179;28;20036;-71
2022/01/03 12:18:28;;;;;;;18.88;14.80;;;;;;;9.87;71.87;100065.72;5088849;28;20044;-71
2022/01/03 12:21:03;;;;;;;19.85;14.30;;;;;;;9.90;72.14;100069.22;5094593;28;20031;-72
2022/01/03 12:23:45;;;;;;;19.50;14.07;;;;;;;9.98;72.10;100082.28;5111775;28;20043;-71
2022/01/03 12:26:23;;;;;;;21.38;15.18;;;;;;;10.32;72.18;100095.28;5088155;28;20043;-72
2022/01/03 12:29:14;;;;;;;18.95;14.00;;;;;;;10.26;71.82;100077.81;5111699;27;20546;-72
2022/01/03 12:35:37;;;;;;;18.65;14.35;;;;;;;10.46;71.41;100103.09;5104609;28;20047;-71
2022/01/03 12:38:03;;;;;;;20.33;14.77;;;;;;;10.54;70.99;100093.47;5090282;28;20054;-72
2022/01/03 12:40:32;;;;;;;20.77;14.15;;;;;;;10.59;71.53;100103.94;5101950;28;20123;-72
2022/01/03 12:43:07;;;;;;;18.75;14.90;;;;;;;10.53;71.58;100092.56;5094571;28;20079;-71
2022/01/03 12:45:32;;;;;;;18.23;14.27;;;;;;;10.54;71.41;100080.34;5087909;28;20043;-71
2022/01/03 12:48:10;;;;;;;20.60;13.70;;;;;;;10.63;71.24;100072.44;5090443;28;20035;-71
2022/01/03 12:51:12;;;;;;;17.73;13.90;;;;;;;10.78;70.83;100080.19;5101885;28;20043;-71
2022/01/03 12:53:41;;;;;;;19.10;15.20;;;;;;;10.94;70.06;100085.34;5105528;28;20069;-71
2022/01/03 12:56:14;;;;;;;19.83;14.35;;;;;;;10.81;70.62;100062.69;5111469;27;20041;-72
2022/01/03 12:58:42;;;;;;;20.30;14.50;;;;;;;10.92;70.48;100095.00;5095662;28;20044;-71
2022/01/03 13:01:49;;;;;;;22.15;12.63;;;;;;;11.03;70.19;100097.53;5096940;27;20058;-71
2022/01/03 13:07:36;;;;;;;19.60;14.63;;;;;;;10.81;70.52;100078.44;5096529;28;20532;-71
2022/01/03 13:10:02;;;;;;;18.00;14.07;;;;;;;10.74;70.98;100065.34;5092591;28;20596;-72
2022/01/03 13:12:28;;;;;;;19.85;13.20;;;;;;;10.82;71.29;100067.06;5092895;28;20091;-71
2022/01/03 13:15:01;;;;;;;23.45;13.27;;;;;;;10.95;70.86;100073.97;5110142;28;20027;-72
2022/01/03 13:27:31;;;;;;;28.23;13.68;;;;;;;11.16;71.24;100075.56;5097904;28;20031;-72
2022/01/03 13:29:58;;;;;;;23.73;14.20;;;;;;;11.06;70.75;100052.88;5104586;28;20431;-72
2022/01/03 13:32:30;;;;;;;20.63;13.80;;;;;;;11.02;71.07;100062.53;5105346;28;20062;-71
2022/01/03 13:38:24;;;;;;;26.08;15.82;;;;;;;11.15;70.57;100058.94;5105280;28;20074;-72
2022/01/03 13:54:30;;;;;;;22.13;14.70;;;;;;;10.75;72.98;100058.38;5104524;28;20077;-72
2022/01/03 13:56:58;;;;;;;20.55;14.15;;;;;;;10.69;72.90;100053.13;5098503;28;20024;-72
2022/01/03 14:02:48;;;;;;;21.00;14.68;;;;;;;10.92;73.20;100095.84;5104227;27;20055;-72
2022/01/03 14:05:15;;;;;;;26.23;14.32;;;;;;;10.74;73.64;100085.47;5088809;28;20047;-71
2022/01/03 14:07:57;;;;;;;22.95;15.88;;;;;;;10.86;72.83;100082.75;5105684;28;20040;-70
2022/01/03 14:13:45;;;;;;;21.20;15.90;;;;;;;10.65;73.57;100078.53;5090658;28;20058;-71
2022/01/03 14:16:14;;;;;;;20.10;15.18;;;;;;;10.79;73.03;100083.69;5091645;28;20048;-71
2022/01/03 14:18:41;;;;;;;23.25;14.88;;;;;;;10.84;72.92;100081.94;5101018;28;20028;-71
2022/01/03 14:21:07;;;;;;;19.17;14.40;;;;;;;10.94;73.31;100109.84;5097100;28;20042;-71
2022/01/03 14:23:56;;;;;;;28.17;15.13;;;;;;;10.87;73.07;100084.53;5097606;28;20020;-72
2022/01/03 14:26:54;;;;;;;33.63;17.13;;;;;;;10.85;73.11;100096.78;5092694;28;20189;-72
2022/01/03 14:29:19;;;;;;;27.08;16.02;;;;;;;10.59;74.19;100088.19;5090203;27;20480;-76
2022/01/03 14:31:59;;;;;;;24.20;16.13;;;;;;;10.65;74.80;100109.13;5092793;27;20080;-72
2022/01/03 14:34:48;;;;;;;26.50;15.30;;;;;;;10.47;74.95;100094.38;5114869;27;20115;-72
2022/01/03 14:41:31;;;;;;;19.10;16.02;;;;;;;10.67;74.97;100102.13;5096113;28;20168;-72
2022/01/03 14:47:29;;;;;;;36.70;17.38;;;;;;;10.49;75.06;100098.72;5118734;27;20435;-72
2022/01/03 14:50:00;;;;;;;31.90;18.67;;;;;;;10.30;75.67;100091.81;5100854;28;20032;-72
2022/01/03 14:52:46;;;;;;;29.83;19.92;;;;;;;10.41;76.37;100116.25;5095823;28;20491;-71
2022/01/03 14:59:17;;;;;;;27.52;18.85;;;;;;;10.26;76.67;100100.56;5106803;28;20046;-71
2022/01/03 15:01:46;;;;;;;36.63;19.98;;;;;;;10.10;76.99;100100.59;5097721;28;20515;-71
2022/01/03 15:04:14;;;;;;;31.55;19.50;;;;;;;10.25;77.24;100130.25;5089533;28;20518;-72
2022/01/03 15:07:15;;;;;;;23.98;15.15;;;;;;;10.30;76.30;100110.16;5092394;28;20070;-72
2022/01/03 15:13:02;;;;;;;25.08;17.10;;;;;;;10.97;72.53;100109.81;5088428;28;20046;-71
2022/01/03 15:15:30;;;;;;;20.83;16.77;;;;;;;11.14;71.65;100122.84;5094889;28;20028;-76
2022/01/03 15:17:56;;;;;;;27.63;15.68;;;;;;;11.16;71.19;100123.69;5106935;28;20031;-72
2022/01/03 15:20:23;;;;;;;16.90;13.27;;;;;;;11.23;69.73;100118.41;5094124;28;20032;-72
2022/01/03 15:22:50;;;;;;;23.02;14.00;;;;;;;11.22;69.29;100135.06;5109011;28;20044;-71
2022/01/03 15:25:16;;;;;;;20.17;13.45;;;;;;;11.17;68.56;100128.06;5097519;28;20038;-72
2022/01/03 15:27:41;;;;;;;16.80;10.02;;;;;;;11.58;66.67;100145.25;5091262;28;20031;-75
2022/01/03 15:30:09;;;;;;;18.15;11.35;;;;;;;11.68;65.14;100129.41;5100517;28;20044;-72
2022/01/03 15:32:34;;;;;;;17.50;11.38;;;;;;;11.87;64.53;100159.03;5097624;28;20040;-72
2022/01/03 15:35:00;;;;;;;21.77;12.07;;;;;;;11.84;64.36;100146.78;5098084;28;20034;-71
2022/01/03 15:37:25;;;;;;;17.65;9.90;;;;;;;11.85;62.95;100135.41;5109779;28;20352;-71